createdAt,value
2023-02-23T00:00:36.521Z,8.80
2023-02-23T00:03:05.553Z,9.40
2023-02-23T00:05:37.513Z,15.50
2023-02-23T00:08:06.558Z,8.80
2023-02-23T00:10:36.745Z,8.63
2023-02-23T00:13:05.525Z,10.13
2023-02-23T00:15:34.298Z,10.90
2023-02-23T00:18:04.733Z,8.93
2023-02-23T00:20:33.429Z,7.47
2023-02-23T00:23:02.062Z,12.40
2023-02-23T00:25:31.259Z,14.20
2023-02-23T00:28:01.576Z,10.43
2023-02-23T00:30:30.675Z,8.50
2023-02-23T00:33:03.562Z,10.47
2023-02-23T00:35:33.037Z,13.87
2023-02-23T00:38:01.664Z,10.33
2023-02-23T00:40:30.470Z,9.30
2023-02-23T00:42:59.010Z,9.50
2023-02-23T00:45:30.643Z,7.30
2023-02-23T00:47:59.119Z,9.60
2023-02-23T00:50:27.757Z,11.10
2023-02-23T00:52:59.787Z,13.47
2023-02-23T00:55:28.230Z,8.03
2023-02-23T00:57:58.424Z,13.33
2023-02-23T01:00:26.855Z,10.17
2023-02-23T01:02:57.317Z,10.33
2023-02-23T01:05:46.077Z,7.47
2023-02-23T01:08:15.607Z,10.67
2023-02-23T01:10:44.717Z,12.90
2023-02-23T01:13:13.873Z,9.30
2023-02-23T01:15:47.046Z,9.53
2023-02-23T01:18:17.755Z,10.67
2023-02-23T01:20:46.885Z,14.23
2023-02-23T01:23:16.049Z,12.17
2023-02-23T01:25:45.737Z,11.33
2023-02-23T01:28:14.534Z,10.60
2023-02-23T01:30:44.993Z,10.03
2023-02-23T01:33:14.010Z,13.00
2023-02-23T01:35:45.173Z,13.97
2023-02-23T01:38:13.904Z,12.13
2023-02-23T01:40:44.729Z,20.90
2023-02-23T01:43:14.650Z,14.30
2023-02-23T01:45:44.192Z,13.63
2023-02-23T01:48:14.819Z,12.73
2023-02-23T01:50:52.684Z,12.87
2023-02-23T01:53:22.874Z,9.83
2023-02-23T01:55:55.447Z,11.53
2023-02-23T01:58:24.887Z,10.20
2023-02-23T02:00:55.291Z,14.53
2023-02-23T02:06:56.721Z,11.97
2023-02-23T02:09:28.669Z,12.73
2023-02-23T02:11:57.422Z,12.40
2023-02-23T02:14:29.401Z,14.40
2023-02-23T02:17:08.147Z,12.63
2023-02-23T02:19:45.496Z,11.97
2023-02-23T02:22:23.320Z,10.57
2023-02-23T02:25:06.918Z,9.50
2023-02-23T02:27:45.345Z,14.50
2023-02-23T02:30:39.555Z,13.60
2023-02-23T02:33:23.013Z,11.60
2023-02-23T02:36:06.933Z,9.83
2023-02-23T02:38:43.061Z,16.90
2023-02-23T02:41:16.385Z,11.93
2023-02-23T02:43:50.993Z,10.00
2023-02-23T02:46:21.032Z,13.27
2023-02-23T02:48:51.431Z,14.83
2023-02-23T02:51:24.055Z,10.07
2023-02-23T02:54:00.288Z,11.23
2023-02-23T02:56:29.246Z,11.30
2023-02-23T02:58:57.803Z,12.17
2023-02-23T03:01:44.075Z,10.27
2023-02-23T03:04:47.866Z,11.90
2023-02-23T03:07:39.746Z,17.80
2023-02-23T03:10:32.769Z,10.40
2023-02-23T03:13:26.930Z,11.00
2023-02-23T03:16:19.569Z,10.60
2023-02-23T03:19:14.492Z,20.07
2023-02-23T03:22:04.819Z,8.63
2023-02-23T03:24:55.796Z,13.13
2023-02-23T03:27:46.221Z,10.33
2023-02-23T03:30:35.176Z,15.37
2023-02-23T03:33:31.060Z,13.67
2023-02-23T03:36:20.210Z,11.23
2023-02-23T03:39:08.714Z,9.17
2023-02-23T03:41:55.259Z,15.70
2023-02-23T03:44:45.534Z,9.60
2023-02-23T03:47:32.526Z,13.83
2023-02-23T03:50:19.483Z,12.00
2023-02-23T03:53:08.730Z,12.60
2023-02-23T03:55:57.499Z,12.57
2023-02-23T03:58:46.431Z,13.73
2023-02-23T04:01:35.788Z,16.10
2023-02-23T04:04:23.201Z,11.50
2023-02-23T04:07:09.848Z,12.53
2023-02-23T04:09:56.502Z,15.60
2023-02-23T04:12:54.107Z,9.93
2023-02-23T04:15:26.184Z,16.60
2023-02-23T04:17:56.607Z,13.20
2023-02-23T04:20:25.984Z,15.13
2023-02-23T04:22:54.857Z,14.27
2023-02-23T04:25:23.898Z,16.83
2023-02-23T04:27:52.339Z,16.70
2023-02-23T04:30:25.539Z,13.03
2023-02-23T04:32:54.272Z,13.97
2023-02-23T04:35:26.868Z,11.17
2023-02-23T04:37:56.043Z,14.20
2023-02-23T04:40:24.782Z,12.60
2023-02-23T04:42:53.842Z,17.70
2023-02-23T04:45:22.659Z,15.40
2023-02-23T04:47:51.037Z,13.57
2023-02-23T04:50:20.642Z,11.47
2023-02-23T04:52:53.094Z,14.13
2023-02-23T04:55:22.829Z,13.63
2023-02-23T04:57:51.614Z,11.90
2023-02-23T05:00:21.110Z,11.93
2023-02-23T05:02:50.865Z,13.23
2023-02-23T05:05:36.989Z,10.90
2023-02-23T05:08:07.402Z,14.43
2023-02-23T05:10:37.348Z,11.63
2023-02-23T05:13:06.515Z,10.27
2023-02-23T05:15:34.970Z,11.30
2023-02-23T05:18:03.468Z,10.83
2023-02-23T05:20:32.022Z,14.43
2023-02-23T05:23:00.766Z,18.83
2023-02-23T05:25:31.454Z,18.20
2023-02-23T05:28:00.501Z,15.83
2023-02-23T05:30:29.430Z,13.50
2023-02-23T05:32:57.999Z,14.03
2023-02-23T05:35:26.635Z,11.50
2023-02-23T05:37:55.219Z,13.13
2023-02-23T05:40:24.441Z,20.77
2023-02-23T05:42:54.374Z,15.70
2023-02-23T05:45:23.903Z,14.00
2023-02-23T05:47:53.573Z,18.00
2023-02-23T05:50:23.336Z,18.93
2023-02-23T05:52:52.041Z,9.47
2023-02-23T05:55:20.446Z,14.70
2023-02-23T05:57:49.463Z,11.37
2023-02-23T06:00:20.050Z,11.17
2023-02-23T06:02:50.017Z,12.43
2023-02-23T06:05:19.517Z,9.77
2023-02-23T06:07:48.366Z,12.40
2023-02-23T06:10:17.085Z,14.50
2023-02-23T06:12:45.994Z,14.97
2023-02-23T06:15:14.732Z,11.50
2023-02-23T06:17:44.855Z,21.10
2023-02-23T06:20:14.739Z,10.30
2023-02-23T06:22:43.449Z,15.13
2023-02-23T06:25:13.624Z,15.80
2023-02-23T06:27:49.143Z,9.90
2023-02-23T06:30:18.131Z,10.23
2023-02-23T06:32:48.159Z,13.60
2023-02-23T06:35:17.279Z,14.37
2023-02-23T06:37:45.615Z,13.30
2023-02-23T06:40:19.089Z,15.30
2023-02-23T06:42:47.929Z,14.23
2023-02-23T06:45:16.324Z,10.93
2023-02-23T06:47:45.201Z,16.17
2023-02-23T06:50:15.740Z,13.37
2023-02-23T06:52:45.665Z,11.20
2023-02-23T06:55:14.483Z,17.60
2023-02-23T06:57:44.882Z,10.20
2023-02-23T07:00:15.202Z,8.93
2023-02-23T07:02:44.252Z,8.47
2023-02-23T07:05:13.060Z,13.20
2023-02-23T07:07:43.450Z,11.40
2023-02-23T07:10:12.922Z,17.30
2023-02-23T07:13:01.172Z,15.90
2023-02-23T07:15:29.844Z,15.63
2023-02-23T07:17:59.418Z,10.57
2023-02-23T07:20:28.125Z,13.53
2023-02-23T07:22:58.184Z,12.43
2023-02-23T07:25:26.607Z,10.33
2023-02-23T07:27:55.364Z,9.07
2023-02-23T07:30:31.270Z,12.00
2023-02-23T07:33:00.040Z,11.00
2023-02-23T07:35:28.827Z,8.43
2023-02-23T07:38:00.582Z,12.13
2023-02-23T07:40:29.769Z,9.37
2023-02-23T07:43:00.785Z,13.43
2023-02-23T07:45:32.349Z,10.93
2023-02-23T07:48:03.881Z,10.00
2023-02-23T07:50:32.691Z,10.20
2023-02-23T07:53:03.170Z,13.00
2023-02-23T07:55:31.972Z,15.17
2023-02-23T07:58:00.496Z,9.57
2023-02-23T08:00:29.304Z,18.53
2023-02-23T08:02:58.648Z,10.67
2023-02-23T08:05:27.165Z,9.63
2023-02-23T08:07:56.275Z,9.97
2023-02-23T08:10:27.834Z,13.13
2023-02-23T08:12:56.498Z,12.37
2023-02-23T08:15:26.666Z,14.73
2023-02-23T08:17:55.225Z,15.33
2023-02-23T08:20:23.859Z,17.60
2023-02-23T08:22:55.485Z,11.10
2023-02-23T08:25:24.337Z,10.20
2023-02-23T08:27:55.341Z,15.73
2023-02-23T08:30:25.602Z,11.97
2023-02-23T08:32:55.537Z,10.40
2023-02-23T08:35:24.476Z,10.17
2023-02-23T08:37:53.519Z,13.93
2023-02-23T08:40:23.496Z,16.10
2023-02-23T08:43:01.536Z,13.13
2023-02-23T08:45:30.499Z,12.47
2023-02-23T08:48:00.523Z,10.57
2023-02-23T08:50:30.221Z,8.20
2023-02-23T08:52:58.995Z,8.87
2023-02-23T08:55:27.560Z,7.23
2023-02-23T08:57:56.421Z,8.13
2023-02-23T09:00:27.488Z,12.90
2023-02-23T09:02:56.416Z,16.13
2023-02-23T09:05:26.205Z,6.53
2023-02-23T09:07:55.640Z,10.20
2023-02-23T09:10:27.900Z,9.10
2023-02-23T09:12:56.801Z,17.30
2023-02-23T09:15:27.208Z,12.13
2023-02-23T09:17:55.900Z,6.27
2023-02-23T09:20:27.264Z,14.40
2023-02-23T09:22:56.534Z,8.00
2023-02-23T09:25:25.846Z,7.60
2023-02-23T09:27:56.573Z,9.80
2023-02-23T09:30:27.979Z,8.47
2023-02-23T09:32:58.060Z,7.87
2023-02-23T09:35:33.016Z,10.93
2023-02-23T09:38:13.805Z,10.00
2023-02-23T09:40:50.129Z,10.60
2023-02-23T09:43:22.876Z,11.43
2023-02-23T09:45:54.558Z,9.90
2023-02-23T09:48:24.190Z,8.00
2023-02-23T09:50:59.695Z,8.10
2023-02-23T09:53:37.056Z,7.70
2023-02-23T09:56:07.606Z,9.30
2023-02-23T09:58:38.171Z,12.80
2023-02-23T10:01:27.520Z,6.27
2023-02-23T10:04:01.427Z,7.87
2023-02-23T10:06:30.632Z,5.67
2023-02-23T10:09:06.169Z,8.43
2023-02-23T10:11:40.307Z,10.77
2023-02-23T10:14:17.684Z,9.93
2023-02-23T10:16:52.612Z,5.10
2023-02-23T10:19:27.597Z,10.03
2023-02-23T10:21:58.322Z,9.17
2023-02-23T10:24:31.505Z,12.10
2023-02-23T10:27:02.453Z,5.80
2023-02-23T10:29:32.933Z,6.67
2023-02-23T10:32:03.273Z,4.40
2023-02-23T10:34:36.667Z,5.63
2023-02-23T10:37:07.097Z,4.13
2023-02-23T10:39:36.768Z,5.57
2023-02-23T10:42:12.622Z,7.13
2023-02-23T10:44:41.409Z,8.93
2023-02-23T10:47:17.411Z,3.80
2023-02-23T10:49:48.975Z,7.07
2023-02-23T10:52:21.561Z,4.20
2023-02-23T10:54:51.917Z,4.17
2023-02-23T10:57:25.544Z,6.93
2023-02-23T11:00:27.894Z,4.83
2023-02-23T11:02:59.161Z,6.73
2023-02-23T11:05:33.503Z,3.93
2023-02-23T11:08:16.247Z,4.80
2023-02-23T11:10:45.950Z,5.93
2023-02-23T11:13:26.287Z,10.20
2023-02-23T11:16:15.124Z,7.93
2023-02-23T11:18:44.854Z,7.07
2023-02-23T11:21:24.091Z,4.27
2023-02-23T11:23:54.225Z,5.47
2023-02-23T11:26:47.766Z,3.70
2023-02-23T11:29:20.973Z,6.27
2023-02-23T11:31:52.913Z,3.90
2023-02-23T11:34:23.809Z,3.70
2023-02-23T11:37:06.563Z,4.70
2023-02-23T11:39:38.951Z,3.67
2023-02-23T11:42:19.452Z,4.43
2023-02-23T11:44:52.952Z,5.50
2023-02-23T11:47:26.265Z,10.23
2023-02-23T11:49:56.391Z,4.73
2023-02-23T11:52:28.025Z,5.60
2023-02-23T11:54:58.424Z,8.87
2023-02-23T11:57:29.914Z,3.00
2023-02-23T11:59:59.709Z,4.47
2023-02-23T12:02:29.577Z,4.70
2023-02-23T12:05:05.418Z,6.77
2023-02-23T12:07:41.873Z,11.43
2023-02-23T12:10:16.839Z,5.07
2023-02-23T12:12:48.824Z,12.90
2023-02-23T12:15:20.780Z,8.40
2023-02-23T12:17:51.311Z,5.00
2023-02-23T12:20:22.751Z,5.40
2023-02-23T12:22:55.331Z,10.67
2023-02-23T12:25:27.922Z,8.50
2023-02-23T12:28:07.613Z,3.90
2023-02-23T12:30:46.237Z,3.53
2023-02-23T12:33:18.152Z,4.13
2023-02-23T12:35:52.697Z,3.33
2023-02-23T12:38:27.928Z,7.40
2023-02-23T12:41:00.456Z,3.57
2023-02-23T12:43:36.163Z,6.30
2023-02-23T12:46:11.623Z,2.33
2023-02-23T12:48:47.520Z,5.30
2023-02-23T12:51:20.299Z,3.10
2023-02-23T12:53:52.378Z,2.93
2023-02-23T12:56:27.543Z,5.07
2023-02-23T12:59:01.711Z,4.90
2023-02-23T13:01:38.407Z,3.30
2023-02-23T13:04:41.063Z,2.97
2023-02-23T13:07:14.932Z,4.73
2023-02-23T13:09:55.541Z,3.33
2023-02-23T13:12:39.112Z,3.30
2023-02-23T13:15:15.810Z,3.00
2023-02-23T13:17:47.675Z,2.87
2023-02-23T13:20:20.022Z,2.13
2023-02-23T13:22:54.497Z,1.70
2023-02-23T13:25:34.334Z,5.53
2023-02-23T13:28:03.986Z,2.77
2023-02-23T13:30:46.007Z,2.60
2023-02-23T13:33:17.224Z,3.17
2023-02-23T13:35:46.400Z,1.70
2023-02-23T13:38:29.687Z,1.23
2023-02-23T13:41:07.523Z,2.20
2023-02-23T13:43:40.649Z,2.13
2023-02-23T13:46:25.596Z,2.23
2023-02-23T13:49:00.462Z,1.63
2023-02-23T13:51:37.696Z,4.73
2023-02-23T13:54:08.377Z,2.50
2023-02-23T13:56:47.992Z,1.83
2023-02-23T13:59:18.540Z,1.10
2023-02-23T14:01:48.969Z,1.60
2023-02-23T14:04:34.779Z,1.77
2023-02-23T14:07:06.754Z,1.63
2023-02-23T14:09:44.257Z,1.93
2023-02-23T14:12:25.846Z,1.70
2023-02-23T14:14:54.766Z,1.60
2023-02-23T14:18:55.162Z,1.30
2023-02-23T14:20:56.922Z,1.67
2023-02-23T14:23:34.908Z,1.20
2023-02-23T14:26:17.838Z,4.50
2023-02-23T14:28:50.950Z,2.93
2023-02-23T14:31:25.839Z,2.30
2023-02-23T14:33:59.200Z,2.30
2023-02-23T14:36:38.739Z,2.30
2023-02-23T14:39:11.099Z,1.57
2023-02-23T14:41:45.730Z,1.30
2023-02-23T14:44:29.065Z,1.77
2023-02-23T14:47:02.407Z,1.60
2023-02-23T14:49:35.178Z,1.33
2023-02-23T14:52:10.149Z,3.73
2023-02-23T14:54:39.319Z,1.57
2023-02-23T14:57:09.282Z,0.90
2023-02-23T14:59:41.064Z,1.70
2023-02-23T15:02:11.550Z,4.20
2023-02-23T15:04:40.095Z,1.40
2023-02-23T15:07:08.841Z,7.00
2023-02-23T15:09:39.849Z,1.27
2023-02-23T15:12:13.607Z,1.83
2023-02-23T15:14:44.098Z,1.90
2023-02-23T15:17:20.626Z,1.50
2023-02-23T15:19:50.351Z,1.03
2023-02-23T15:22:24.119Z,2.10
2023-02-23T15:24:52.740Z,6.80
2023-02-23T15:27:26.963Z,3.87
2023-02-23T15:33:23.690Z,1.23
2023-02-23T15:35:54.746Z,1.77
2023-02-23T15:38:42.296Z,1.70
2023-02-23T15:41:17.584Z,2.27
2023-02-23T15:43:46.285Z,2.50
2023-02-23T15:46:25.418Z,1.13
2023-02-23T15:48:56.487Z,1.47
2023-02-23T15:51:31.855Z,2.43
2023-02-23T15:54:03.971Z,1.50
2023-02-23T15:56:32.443Z,3.37
2023-02-23T15:59:04.717Z,4.53
2023-02-23T16:01:33.652Z,1.27
2023-02-23T16:04:04.716Z,2.00
2023-02-23T16:06:34.760Z,2.50
2023-02-23T16:09:06.870Z,1.47
2023-02-23T16:11:36.575Z,3.77
2023-02-23T16:14:07.049Z,1.53
2023-02-23T16:16:36.454Z,1.10
2023-02-23T16:19:06.277Z,1.57
2023-02-23T16:21:35.203Z,1.43
2023-02-23T16:24:10.029Z,1.03
2023-02-23T16:26:43.551Z,1.60
2023-02-23T16:29:18.749Z,1.87
2023-02-23T16:31:48.145Z,0.90
2023-02-23T16:34:23.222Z,1.53
2023-02-23T16:36:53.853Z,1.30
2023-02-23T16:39:25.772Z,2.10
2023-02-23T16:41:54.250Z,4.83
2023-02-23T16:44:28.363Z,1.50
2023-02-23T16:47:12.464Z,2.07
2023-02-23T16:49:46.121Z,1.97
2023-02-23T16:55:45.158Z,1.37
2023-02-23T16:58:19.042Z,1.33
2023-02-23T17:00:48.028Z,3.23
2023-02-23T17:03:20.339Z,1.63
2023-02-23T17:05:54.062Z,2.17
2023-02-23T17:08:22.988Z,2.13
2023-02-23T17:10:54.233Z,1.93
2023-02-23T17:13:23.847Z,2.50
2023-02-23T17:15:56.181Z,4.10
2023-02-23T17:20:56.620Z,2.13
2023-02-23T17:23:27.058Z,9.80
2023-02-23T17:25:57.820Z,34.07
2023-02-23T17:28:26.258Z,12.60
2023-02-23T17:30:55.738Z,3.70
2023-02-23T17:33:25.351Z,2.87
2023-02-23T17:35:55.314Z,2.43
2023-02-23T17:38:34.893Z,2.13
2023-02-23T17:41:08.837Z,3.27
2023-02-23T17:43:39.250Z,3.67
2023-02-23T17:46:14.210Z,2.13
2023-02-23T17:48:44.870Z,3.67
2023-02-23T17:51:22.824Z,2.03
2023-02-23T17:53:52.020Z,1.63
2023-02-23T17:56:24.426Z,2.43
2023-02-23T17:58:54.302Z,1.10
2023-02-23T18:01:27.373Z,1.20
2023-02-23T18:03:59.580Z,1.10
2023-02-23T18:06:30.794Z,4.50
2023-02-23T18:09:07.001Z,2.80
2023-02-23T18:11:35.771Z,1.87
2023-02-23T18:14:05.034Z,2.27
2023-02-23T18:16:35.356Z,6.10
2023-02-23T18:19:08.815Z,2.50
2023-02-23T18:21:41.293Z,2.90
2023-02-23T18:24:10.372Z,2.60
2023-02-23T18:26:39.537Z,2.20
2023-02-23T18:29:15.181Z,2.53
2023-02-23T18:31:55.024Z,3.90
2023-02-23T18:34:30.604Z,2.17
2023-02-23T18:37:03.940Z,2.57
2023-02-23T18:39:36.368Z,2.50
2023-02-23T18:42:07.305Z,3.53
2023-02-23T18:44:36.099Z,3.83
2023-02-23T18:47:08.013Z,3.83
2023-02-23T18:49:37.551Z,3.00
2023-02-23T18:52:09.319Z,2.40
2023-02-23T18:54:39.008Z,3.53
2023-02-23T18:57:08.948Z,2.37
2023-02-23T18:59:37.622Z,3.43
2023-02-23T19:02:06.635Z,4.17
2023-02-23T19:04:40.341Z,3.00
2023-02-23T19:07:10.683Z,2.50
2023-02-23T19:09:41.136Z,5.10
2023-02-23T19:12:11.586Z,2.70
2023-02-23T19:14:49.299Z,1.60
2023-02-23T19:17:19.485Z,3.70
2023-02-23T19:19:54.946Z,1.67
2023-02-23T19:22:25.507Z,8.07
2023-02-23T19:24:54.134Z,3.97
2023-02-23T19:27:23.293Z,3.43
2023-02-23T19:29:52.098Z,2.70
2023-02-23T19:32:20.946Z,3.20
2023-02-23T19:34:49.847Z,2.20
2023-02-23T19:37:18.349Z,2.00
2023-02-23T19:39:50.774Z,1.43
2023-02-23T19:42:31.988Z,2.07
2023-02-23T19:45:01.273Z,2.07
2023-02-23T19:47:30.583Z,3.77
2023-02-23T19:49:58.970Z,3.57
2023-02-23T19:52:29.263Z,6.93
2023-02-23T19:55:07.172Z,3.50
2023-02-23T19:57:35.959Z,5.23
2023-02-23T20:00:05.241Z,2.30
2023-02-23T20:02:57.479Z,3.67
2023-02-23T20:05:26.165Z,1.60
2023-02-23T20:07:57.286Z,9.67
2023-02-23T20:10:29.116Z,5.67
2023-02-23T20:12:58.101Z,2.20
2023-02-23T20:15:27.219Z,2.83
2023-02-23T20:17:56.207Z,2.33
2023-02-23T20:20:26.060Z,4.20
2023-02-23T20:22:55.471Z,7.30
2023-02-23T20:25:24.585Z,2.60
2023-02-23T20:27:54.955Z,2.33
2023-02-23T20:30:29.605Z,3.73
2023-02-23T20:32:58.341Z,2.97
2023-02-23T20:35:27.893Z,6.30
2023-02-23T20:37:56.842Z,5.23
2023-02-23T20:40:28.408Z,7.80
2023-02-23T20:43:12.311Z,4.43
2023-02-23T20:45:41.838Z,5.97
2023-02-23T20:48:11.068Z,9.67
2023-02-23T20:50:42.657Z,2.33
2023-02-23T20:53:17.393Z,5.57
2023-02-23T20:55:46.631Z,3.77
2023-02-23T20:58:30.309Z,9.23
2023-02-23T21:01:03.575Z,12.47
2023-02-23T21:03:33.260Z,2.80
2023-02-23T21:06:03.888Z,11.13
2023-02-23T21:08:32.838Z,6.33
2023-02-23T21:11:06.317Z,6.60
2023-02-23T21:13:35.321Z,2.80
2023-02-23T21:16:06.746Z,5.70
2023-02-23T21:18:35.107Z,5.50
2023-02-23T21:21:09.880Z,4.70
2023-02-23T21:23:40.302Z,5.53
2023-02-23T21:26:14.255Z,6.13
2023-02-23T21:28:43.290Z,5.13
2023-02-23T21:31:14.289Z,7.53
2023-02-23T21:33:44.013Z,7.67
2023-02-23T21:36:13.771Z,6.87
2023-02-23T21:38:43.654Z,4.13
2023-02-23T21:41:13.661Z,6.70
2023-02-23T21:47:20.528Z,5.33
2023-02-23T21:49:49.716Z,4.77
2023-02-23T21:52:18.479Z,5.20
2023-02-23T21:54:57.533Z,4.63
2023-02-23T21:57:28.227Z,6.30
2023-02-23T21:59:57.315Z,4.10
2023-02-23T22:02:32.193Z,4.00
2023-02-23T22:05:01.161Z,3.10
2023-02-23T22:07:30.030Z,5.67
2023-02-23T22:09:58.817Z,4.63
2023-02-23T22:12:28.007Z,5.07
2023-02-23T22:14:57.223Z,3.43
2023-02-23T22:17:27.739Z,9.83
2023-02-23T22:19:56.272Z,5.63
2023-02-23T22:22:24.873Z,8.50
2023-02-23T22:24:53.417Z,5.50
2023-02-23T22:27:22.681Z,3.50
2023-02-23T22:29:51.844Z,5.00
2023-02-23T22:32:20.404Z,6.37
2023-02-23T22:34:54.431Z,6.17
2023-02-23T22:37:29.856Z,5.00
2023-02-23T22:40:00.195Z,4.57
2023-02-23T22:42:30.151Z,5.90
2023-02-23T22:44:59.056Z,3.27
2023-02-23T22:47:27.466Z,4.03
2023-02-23T22:49:57.467Z,5.03
2023-02-23T22:52:26.856Z,7.53
2023-02-23T22:54:55.344Z,10.13
2023-02-23T22:57:23.820Z,8.40
2023-02-23T23:00:00.099Z,5.73
2023-02-23T23:02:32.522Z,3.27
2023-02-23T23:05:02.599Z,7.70
2023-02-23T23:07:32.822Z,5.63
2023-02-23T23:10:04.073Z,7.53
2023-02-23T23:12:34.350Z,7.60
2023-02-23T23:15:03.082Z,5.97
2023-02-23T23:17:33.300Z,8.07
2023-02-23T23:20:10.723Z,9.00
2023-02-23T23:22:39.551Z,9.73
2023-02-23T23:25:14.799Z,10.93
2023-02-23T23:27:46.190Z,10.57
2023-02-23T23:30:17.093Z,8.33
2023-02-23T23:32:45.698Z,5.13
2023-02-23T23:35:35.875Z,6.93
2023-02-23T23:38:06.213Z,6.23
2023-02-23T23:40:36.044Z,4.93
2023-02-23T23:43:07.652Z,7.53
2023-02-23T23:45:38.225Z,6.93
2023-02-23T23:48:09.625Z,4.60
2023-02-23T23:50:39.633Z,6.20
2023-02-23T23:53:10.587Z,8.93
2023-02-23T23:55:39.169Z,6.80
2023-02-23T23:58:07.715Z,10.60
